Time;durP1;ratioP1;P1;durP2;ratioP2;P2;SDS_P1;SDS_P2;PMS_P1;PMS_P2;Temp;Humidity;BMP_temperature;BMP_pressure;BME280_temperature;BME280_humidity;BME280_pressure;Samples;Min_cycle;Max_cycle;Signal;HPM_P1;HPM_P2
2022/03/07 00:00:30;;;;;;;7.88;1.77;;;0.30;99.90;;;;;;5099717;27;20811;-87
2022/03/07 00:02:55;;;;;;;5.80;1.45;;;0.20;99.90;;;;;;5118909;27;20117;-86
2022/03/07 00:05:21;;;;;;;9.40;1.73;;;0.20;99.90;;;;;;5096088;27;20035;-86
2022/03/07 00:07:47;;;;;;;7.85;1.90;;;0.20;99.90;;;;;;5104059;27;20050;-87
2022/03/07 00:10:13;;;;;;;6.63;1.98;;;1.20;99.90;;;;;;5093923;27;20054;-86
2022/03/07 00:12:42;;;;;;;7.32;2.15;;;0.90;99.90;;;;;;5103499;27;20448;-86
2022/03/07 00:15:08;;;;;;;9.32;2.17;;;0.60;99.90;;;;;;5097196;27;20069;-87
2022/03/07 00:17:34;;;;;;;6.53;1.60;;;0.10;99.90;;;;;;5088572;27;20408;-86
2022/03/07 00:20:00;;;;;;;7.10;1.90;;;0.10;99.90;;;;;;5114497;27;20406;-86
2022/03/07 00:22:25;;;;;;;4.88;1.70;;;0.00;99.90;;;;;;5117789;27;20035;-87
2022/03/07 00:24:51;;;;;;;7.35;1.70;;;0.00;99.90;;;;;;5101602;27;20466;-87
2022/03/07 00:27:17;;;;;;;6.53;1.70;;;1.20;99.90;;;;;;5116041;27;20414;-87
2022/03/07 00:29:43;;;;;;;6.18;1.63;;;-0.60;99.90;;;;;;5103200;27;20042;-87
2022/03/07 00:32:08;;;;;;;5.10;1.83;;;-0.30;99.90;;;;;;5101045;27;20487;-86
2022/03/07 00:34:34;;;;;;;7.13;2.00;;;-0.20;99.90;;;;;;5101654;27;20046;-86
2022/03/07 00:36:59;;;;;;;4.25;1.80;;;-0.20;99.90;;;;;;5092814;27;20075;-87
2022/03/07 00:39:25;;;;;;;7.28;1.90;;;-0.20;99.90;;;;;;5107493;27;20042;-87
2022/03/07 00:41:51;;;;;;;5.72;2.20;;;-0.20;99.90;;;;;;5099346;27;20476;-87
2022/03/07 00:44:16;;;;;;;4.68;1.60;;;-0.20;99.90;;;;;;5101998;27;20126;-87
2022/03/07 00:46:42;;;;;;;5.63;1.60;;;0.50;99.90;;;;;;5116890;27;20050;-87
2022/03/07 00:49:08;;;;;;;5.03;1.63;;;-0.30;99.90;;;;;;5104663;27;20047;-88
2022/03/07 00:51:34;;;;;;;5.10;1.92;;;1.10;99.90;;;;;;5097741;27;20250;-87
2022/03/07 00:53:59;;;;;;;5.47;1.67;;;-0.30;99.90;;;;;;5098580;27;20134;-87
2022/03/07 00:56:25;;;;;;;6.28;1.90;;;-0.30;99.90;;;;;;5097284;27;20043;-87
2022/03/07 00:58:50;;;;;;;5.90;2.10;;;-0.30;99.90;;;;;;5112296;27;20085;-87
2022/03/07 01:01:17;;;;;;;8.57;1.92;;;0.40;99.90;;;;;;5100225;27;20154;-87
2022/03/07 01:03:42;;;;;;;8.05;2.15;;;-0.90;99.90;;;;;;5103136;27;20043;-87
2022/03/07 01:06:08;;;;;;;8.60;2.15;;;-0.40;99.90;;;;;;5116751;27;20540;-87
2022/03/07 01:08:34;;;;;;;10.23;2.17;;;-0.40;99.90;;;;;;5102512;27;20031;-87
2022/03/07 01:10:59;;;;;;;5.60;1.60;;;0.60;99.90;;;;;;5113377;27;20043;-88
2022/03/07 01:13:25;;;;;;;11.10;2.00;;;-0.40;99.90;;;;;;5095307;27;20085;-87
2022/03/07 01:15:51;;;;;;;6.78;2.30;;;-0.40;99.90;;;;;;5099770;27;20039;-87
2022/03/07 01:18:17;;;;;;;6.80;2.05;;;-0.40;99.90;;;;;;5114251;27;20039;-87
2022/03/07 01:20:42;;;;;;;8.80;1.92;;;-0.50;99.90;;;;;;5095439;27;20042;-87
2022/03/07 01:23:08;;;;;;;5.93;1.75;;;-0.50;99.90;;;;;;5095370;27;20047;-87
2022/03/07 01:25:34;;;;;;;7.28;1.90;;;-0.50;99.90;;;;;;5114268;27;20134;-87
2022/03/07 01:28:12;;;;;;;7.47;2.17;;;-0.50;99.90;;;;;;5105781;27;20610;-86
2022/03/07 01:30:41;;;;;;;8.43;1.92;;;-0.60;99.90;;;;;;5098630;27;20045;-87
2022/03/07 01:33:06;;;;;;;8.70;2.10;;;-1.00;99.90;;;;;;5106502;27;20035;-87
2022/03/07 01:35:32;;;;;;;7.72;2.20;;;-0.70;99.90;;;;;;5097807;27;20119;-86
2022/03/07 01:37:58;;;;;;;6.50;1.95;;;0.30;99.90;;;;;;5120150;27;21214;-87
2022/03/07 01:40:24;;;;;;;7.25;1.95;;;-0.20;99.90;;;;;;5099401;27;20071;-86
2022/03/07 01:42:50;;;;;;;9.07;2.47;;;-0.70;99.90;;;;;;5105626;27;20043;-86
2022/03/07 01:45:22;;;;;;;6.35;1.95;;;-0.70;99.90;;;;;;5103171;27;20107;-86
2022/03/07 01:47:51;;;;;;;5.78;2.30;;;-0.70;99.90;;;;;;5122297;27;20047;-87
2022/03/07 01:50:22;;;;;;;10.55;2.00;;;-0.80;99.90;;;;;;5105224;27;20035;-85
2022/03/07 01:52:50;;;;;;;7.97;2.00;;;-0.80;99.90;;;;;;5117500;27;20755;-87
2022/03/07 01:55:17;;;;;;;7.85;2.10;;;0.20;99.90;;;;;;5110173;27;20509;-87
2022/03/07 01:57:47;;;;;;;7.03;2.28;;;-0.90;99.90;;;;;;5097126;27;20048;-87
2022/03/07 02:00:21;;;;;;;8.77;2.00;;;0.10;99.90;;;;;;5113059;27;20180;-86
2022/03/07 02:02:47;;;;;;;5.68;1.60;;;-0.90;99.90;;;;;;5116267;27;20085;-86
2022/03/07 02:05:13;;;;;;;8.13;2.28;;;-0.90;99.90;;;;;;5120876;27;20157;-87
2022/03/07 02:07:39;;;;;;;7.97;2.00;;;-1.00;99.90;;;;;;5113359;27;20464;-86
2022/03/07 02:10:07;;;;;;;7.82;2.00;;;-0.10;99.90;;;;;;5107405;27;20047;-86
2022/03/07 02:12:33;;;;;;;7.05;2.70;;;-1.00;99.90;;;;;;5098840;27;20692;-86
2022/03/07 02:14:59;;;;;;;7.55;2.22;;;-1.20;99.90;;;;;;5105813;27;20057;-86
2022/03/07 02:17:25;;;;;;;6.78;2.05;;;0.00;99.90;;;;;;5106072;27;20077;-86
2022/03/07 02:19:50;;;;;;;5.78;2.08;;;0.10;99.90;;;;;;5095150;27;20030;-86
2022/03/07 02:22:16;;;;;;;7.03;1.92;;;-1.20;99.90;;;;;;5103296;27;20390;-86
2022/03/07 02:24:46;;;;;;;7.15;2.30;;;-1.40;99.90;;;;;;5114678;27;20092;-86
2022/03/07 02:27:12;;;;;;;6.63;2.22;;;-1.10;99.90;;;;;;5120461;27;20035;-87
2022/03/07 02:29:38;;;;;;;7.82;2.75;;;-1.20;99.90;;;;;;5125329;27;20059;-87
2022/03/07 02:32:05;;;;;;;6.55;2.30;;;-1.30;99.90;;;;;;5097166;27;20491;-87
2022/03/07 02:34:31;;;;;;;7.32;2.20;;;-1.10;99.90;;;;;;5128285;27;20113;-85
2022/03/07 02:36:57;;;;;;;8.25;2.38;;;-1.10;99.90;;;;;;5113342;27;20166;-86
2022/03/07 02:39:23;;;;;;;9.35;2.70;;;0.10;99.90;;;;;;5104581;27;20125;-86
2022/03/07 02:41:53;;;;;;;8.23;2.90;;;-1.20;99.90;;;;;;5117084;27;20111;-85
2022/03/07 02:44:22;;;;;;;7.20;3.20;;;-1.10;99.90;;;;;;5105343;27;20106;-86
2022/03/07 02:46:48;;;;;;;7.78;2.25;;;-1.80;99.90;;;;;;5106023;27;20045;-86
2022/03/07 02:49:13;;;;;;;5.30;2.35;;;-2.00;99.90;;;;;;5095447;27;20039;-85
2022/03/07 02:51:39;;;;;;;8.75;2.28;;;-1.40;99.90;;;;;;5111359;27;20489;-85
2022/03/07 02:54:05;;;;;;;7.28;2.42;;;-1.20;99.90;;;;;;5089574;27;20046;-86
2022/03/07 02:56:31;;;;;;;6.78;2.15;;;-1.20;99.90;;;;;;5090485;27;20049;-85
2022/03/07 02:58:57;;;;;;;7.22;1.92;;;-1.30;99.90;;;;;;5088217;27;20526;-85
2022/03/07 03:01:23;;;;;;;6.35;2.03;;;-0.10;99.90;;;;;;5089611;27;20042;-85
2022/03/07 03:03:52;;;;;;;9.77;2.50;;;-1.30;99.90;;;;;;5094707;27;20056;-85
2022/03/07 03:06:17;;;;;;;5.57;2.13;;;-1.30;99.90;;;;;;5108433;27;20043;-85
2022/03/07 03:08:43;;;;;;;6.55;2.47;;;-1.30;99.90;;;;;;5111884;27;20354;-85
2022/03/07 03:11:09;;;;;;;8.43;2.40;;;-1.40;99.90;;;;;;5110967;27;20039;-85
2022/03/07 03:13:35;;;;;;;7.00;2.50;;;-1.40;99.90;;;;;;5108799;27;20058;-85
2022/03/07 03:16:00;;;;;;;6.07;2.13;;;-1.40;99.90;;;;;;5091170;27;20328;-85
2022/03/07 03:18:32;;;;;;;7.80;2.10;;;-1.40;99.90;;;;;;5093888;27;20194;-85
2022/03/07 03:20:58;;;;;;;7.47;2.47;;;-1.10;99.90;;;;;;5091773;27;20395;-85
2022/03/07 03:23:24;;;;;;;7.43;2.08;;;-0.80;99.90;;;;;;5083774;27;20055;-84
2022/03/07 03:25:52;;;;;;;7.55;2.38;;;-1.50;99.90;;;;;;5099307;27;20050;-85
2022/03/07 03:28:18;;;;;;;4.97;2.15;;;-1.50;99.90;;;;;;5094240;27;20051;-85
2022/03/07 03:30:44;;;;;;;5.68;2.40;;;-1.50;99.90;;;;;;5114489;27;20428;-84
2022/03/07 03:33:09;;;;;;;7.88;2.42;;;-1.50;99.90;;;;;;5099076;27;20499;-84
2022/03/07 03:35:36;;;;;;;9.13;2.45;;;-1.50;99.90;;;;;;5118146;27;20110;-85
2022/03/07 03:38:03;;;;;;;8.02;2.53;;;-1.50;99.90;;;;;;5098107;27;20840;-85
2022/03/07 03:40:29;;;;;;;6.63;2.78;;;-1.50;99.90;;;;;;5113647;27;20035;-85
2022/03/07 03:42:55;;;;;;;6.57;2.50;;;-1.60;99.90;;;;;;5099335;27;20546;-84
2022/03/07 03:45:21;;;;;;;6.78;2.20;;;-0.10;99.90;;;;;;5104061;27;20129;-85
2022/03/07 03:47:46;;;;;;;8.27;2.38;;;-0.70;99.90;;;;;;5121621;27;20038;-84
2022/03/07 03:50:13;;;;;;;6.85;2.65;;;-1.60;99.90;;;;;;5114061;27;20483;-84
2022/03/07 03:52:41;;;;;;;6.97;2.65;;;-1.00;99.90;;;;;;5102391;27;20513;-84
2022/03/07 03:55:09;;;;;;;9.77;2.50;;;-1.60;99.90;;;;;;5103706;27;20054;-84
2022/03/07 03:57:35;;;;;;;6.85;2.10;;;-1.70;99.90;;;;;;5108527;27;20057;-84
2022/03/07 04:00:00;;;;;;;7.75;2.55;;;-1.70;99.90;;;;;;5100637;27;20456;-84
2022/03/07 04:02:26;;;;;;;10.25;2.47;;;-1.70;99.90;;;;;;5124800;27;20604;-84
2022/03/07 04:04:52;;;;;;;10.02;2.17;;;-1.70;99.90;;;;;;5127379;27;20387;-84
2022/03/07 04:07:17;;;;;;;7.30;2.50;;;-1.70;99.90;;;;;;5112604;27;20039;-84
2022/03/07 04:09:43;;;;;;;8.85;2.80;;;-1.80;99.90;;;;;;5091718;27;20765;-84
2022/03/07 04:12:09;;;;;;;9.77;2.53;;;-1.70;99.90;;;;;;5121007;27;20034;-84
2022/03/07 04:14:35;;;;;;;7.43;2.50;;;-1.80;99.90;;;;;;5095029;27;20063;-84
2022/03/07 04:17:00;;;;;;;8.27;2.70;;;-1.80;99.90;;;;;;5083004;27;20046;-84
2022/03/07 04:19:27;;;;;;;11.77;2.78;;;-1.80;99.90;;;;;;5108884;28;20039;-84
2022/03/07 04:21:52;;;;;;;11.70;2.63;;;-1.60;99.90;;;;;;5100864;28;20529;-84
2022/03/07 04:24:19;;;;;;;8.45;2.85;;;-1.80;99.90;;;;;;5104218;28;20142;-84
2022/03/07 04:26:45;;;;;;;7.70;2.70;;;-1.90;99.90;;;;;;5092447;28;20039;-84
2022/03/07 04:29:11;;;;;;;8.68;3.08;;;-1.90;99.90;;;;;;5084601;28;20043;-84
2022/03/07 04:31:40;;;;;;;8.73;2.72;;;-1.90;99.90;;;;;;5097799;28;20031;-84
2022/03/07 04:34:07;;;;;;;8.98;2.80;;;-1.90;99.90;;;;;;5089995;28;20084;-84
2022/03/07 04:36:37;;;;;;;11.93;2.55;;;-1.90;99.90;;;;;;5099168;28;20079;-84
2022/03/07 04:39:07;;;;;;;8.27;2.85;;;-2.00;99.90;;;;;;5105364;28;20051;-84
2022/03/07 04:41:33;;;;;;;8.98;2.97;;;-2.00;99.90;;;;;;5105705;27;20054;-84
2022/03/07 04:43:59;;;;;;;10.13;3.47;;;-2.00;99.90;;;;;;5082020;28;20036;-84
2022/03/07 04:46:25;;;;;;;9.52;3.13;;;-2.00;99.90;;;;;;5111402;28;20485;-84
2022/03/07 04:48:51;;;;;;;7.30;2.72;;;-2.00;99.90;;;;;;5084023;28;20126;-84
2022/03/07 04:51:17;;;;;;;11.65;3.13;;;-2.10;99.90;;;;;;5093479;28;20130;-84
2022/03/07 04:53:43;;;;;;;8.85;2.92;;;-2.10;99.90;;;;;;5103829;27;20043;-84
2022/03/07 04:56:09;;;;;;;7.97;2.80;;;-2.10;99.90;;;;;;5080986;28;20078;-84
2022/03/07 04:58:35;;;;;;;7.40;2.88;;;-2.10;99.90;;;;;;5093010;28;20042;-84
2022/03/07 05:01:01;;;;;;;9.18;3.28;;;-2.10;99.90;;;;;;5090370;27;20048;-84
2022/03/07 05:03:27;;;;;;;10.65;3.10;;;-2.10;99.90;;;;;;5104624;27;20308;-84
2022/03/07 05:05:52;;;;;;;9.10;3.08;;;-2.20;99.90;;;;;;5094411;27;20069;-84
2022/03/07 05:08:18;;;;;;;8.70;3.10;;;-2.10;99.90;;;;;;5091406;27;20039;-84
2022/03/07 05:10:44;;;;;;;9.23;2.80;;;-1.20;99.90;;;;;;5088352;27;20115;-84
2022/03/07 05:13:10;;;;;;;9.07;3.13;;;-2.20;99.90;;;;;;5087213;27;20503;-84
2022/03/07 05:15:36;;;;;;;7.82;2.70;;;-2.20;99.90;;;;;;5095782;27;20040;-84
2022/03/07 05:18:03;;;;;;;9.52;2.97;;;-2.00;99.90;;;;;;5089076;27;20082;-85
2022/03/07 05:20:29;;;;;;;12.00;3.40;;;-2.20;99.90;;;;;;5101902;27;20040;-84
2022/03/07 05:22:55;;;;;;;14.68;5.50;;;-2.20;99.90;;;;;;5084558;27;20369;-84
2022/03/07 05:25:21;;;;;;;8.60;3.28;;;-2.20;99.90;;;;;;5086327;27;20035;-84
2022/03/07 05:27:47;;;;;;;12.00;3.88;;;-2.20;99.90;;;;;;5109593;27;20046;-84
2022/03/07 05:30:16;;;;;;;9.05;3.40;;;-2.30;99.90;;;;;;5100842;27;20456;-84
2022/03/07 05:32:47;;;;;;;9.20;3.50;;;-2.30;99.90;;;;;;5106857;27;21608;-84
2022/03/07 05:35:14;;;;;;;9.20;3.22;;;-2.30;99.90;;;;;;5087169;28;20126;-84
2022/03/07 05:37:40;;;;;;;11.68;3.42;;;-2.30;99.90;;;;;;5100005;27;20042;-84
2022/03/07 05:40:09;;;;;;;11.32;3.58;;;-2.30;99.90;;;;;;5084821;27;20407;-84
2022/03/07 05:42:36;;;;;;;8.70;3.30;;;-2.30;99.90;;;;;;5103803;27;20122;-84
2022/03/07 05:45:03;;;;;;;11.95;3.65;;;-2.30;99.90;;;;;;5079833;27;20036;-84
2022/03/07 05:47:28;;;;;;;11.77;3.30;;;-2.30;99.90;;;;;;5092938;27;20827;-84
2022/03/07 05:49:54;;;;;;;9.30;3.83;;;-2.40;99.90;;;;;;5093389;27;20047;-84
2022/03/07 05:52:20;;;;;;;9.18;3.55;;;-2.40;99.90;;;;;;5097606;27;20036;-84
2022/03/07 05:54:46;;;;;;;12.70;4.00;;;-2.40;99.90;;;;;;5088772;28;20444;-84
2022/03/07 05:57:11;;;;;;;12.23;4.07;;;-2.40;99.90;;;;;;5087438;27;20051;-84
2022/03/07 05:59:37;;;;;;;12.57;3.83;;;-2.40;99.90;;;;;;5106925;27;20062;-84
2022/03/07 06:02:03;;;;;;;10.38;3.83;;;-2.40;99.90;;;;;;5078233;28;20043;-83
2022/03/07 06:04:29;;;;;;;13.52;4.28;;;-2.40;99.90;;;;;;5102173;27;20052;-83
2022/03/07 06:06:55;;;;;;;12.55;4.03;;;-2.40;99.90;;;;;;5087167;27;20081;-84
2022/03/07 06:09:20;;;;;;;13.07;3.85;;;-2.40;99.90;;;;;;5079109;28;20047;-85
2022/03/07 06:11:46;;;;;;;10.65;4.38;;;-0.90;99.90;;;;;;5078989;27;20114;-84
2022/03/07 06:14:12;;;;;;;12.68;4.45;;;-2.40;99.90;;;;;;5106124;27;20047;-84
2022/03/07 06:16:37;;;;;;;10.43;4.30;;;-2.50;99.90;;;;;;5106390;27;20049;-84
2022/03/07 06:19:03;;;;;;;19.65;4.50;;;-2.50;99.90;;;;;;5116679;27;20053;-84
2022/03/07 06:21:29;;;;;;;10.63;4.28;;;-2.50;99.90;;;;;;5113115;27;20147;-84
2022/03/07 06:23:54;;;;;;;15.27;6.18;;;-2.40;99.90;;;;;;5115510;27;20121;-84
2022/03/07 06:26:20;;;;;;;11.02;4.30;;;-2.40;99.90;;;;;;5101428;27;20053;-83
2022/03/07 06:28:46;;;;;;;10.45;3.90;;;-2.40;99.90;;;;;;5100255;27;20051;-83
2022/03/07 06:31:12;;;;;;;12.18;4.07;;;-2.40;99.90;;;;;;5119872;27;20301;-83
2022/03/07 06:33:37;;;;;;;11.73;3.95;;;-2.40;99.90;;;;;;5121829;27;20043;-84
2022/03/07 06:36:06;;;;;;;16.17;4.50;;;-2.40;99.90;;;;;;5093077;27;20049;-83
2022/03/07 06:38:32;;;;;;;10.63;3.80;;;-2.30;99.90;;;;;;5097104;27;20126;-83
2022/03/07 06:40:58;;;;;;;14.55;4.45;;;-2.30;99.90;;;;;;5098650;27;20046;-84
2022/03/07 06:43:23;;;;;;;14.02;4.65;;;-2.30;99.90;;;;;;5119947;27;20116;-84
2022/03/07 06:45:54;;;;;;;14.23;4.35;;;-2.30;99.90;;;;;;5091975;27;20078;-84
2022/03/07 06:48:20;;;;;;;10.73;4.40;;;-2.30;99.90;;;;;;5112028;27;20039;-84
2022/03/07 06:50:46;;;;;;;11.00;4.18;;;-2.20;99.90;;;;;;5116238;27;20542;-84
2022/03/07 06:53:12;;;;;;;11.35;4.28;;;-2.20;99.90;;;;;;5118481;27;20051;-85
2022/03/07 06:55:38;;;;;;;9.98;4.03;;;-2.10;99.90;;;;;;5095726;27;20798;-84
2022/03/07 06:58:04;;;;;;;12.43;4.50;;;-2.00;99.90;;;;;;5097970;27;20904;-84
2022/03/07 07:00:30;;;;;;;12.55;4.80;;;-2.00;99.90;;;;;;5100880;27;20050;-85
2022/03/07 07:02:56;;;;;;;14.38;5.05;;;-1.90;99.90;;;;;;5106876;27;20122;-84
2022/03/07 07:05:22;;;;;;;10.60;4.50;;;-1.80;99.90;;;;;;5115531;27;20039;-85
2022/03/07 07:07:48;;;;;;;10.93;4.43;;;-1.70;99.90;;;;;;5120668;27;20054;-85
2022/03/07 07:10:20;;;;;;;9.73;4.57;;;-1.70;99.90;;;;;;5094156;27;20072;-85
2022/03/07 07:12:47;;;;;;;14.20;4.50;;;-1.20;99.90;;;;;;5106204;27;20117;-85
2022/03/07 07:15:13;;;;;;;12.57;4.95;;;-0.30;99.90;;;;;;5103737;27;20173;-86
2022/03/07 07:17:39;;;;;;;16.15;5.30;;;0.50;99.90;;;;;;5106328;27;20039;-86
2022/03/07 07:20:07;;;;;;;11.70;4.13;;;1.50;99.90;;;;;;5121879;27;20125;-86
2022/03/07 07:22:33;;;;;;;8.00;4.22;;;2.60;99.90;;;;;;5101178;27;20080;-86
2022/03/07 07:24:59;;;;;;;9.50;3.47;;;3.30;99.90;;;;;;5116975;27;20083;-86
2022/03/07 07:27:25;;;;;;;7.78;3.70;;;4.00;99.90;;;;;;5105863;27;20076;-85
2022/03/07 07:29:51;;;;;;;10.13;3.60;;;5.20;99.90;;;;;;5121534;27;20055;-86
2022/03/07 07:32:20;;;;;;;10.05;3.72;;;6.30;99.90;;;;;;5107429;27;20669;-86
2022/03/07 07:42:10;;;;;;;9.48;3.20;;;8.70;99.90;;;;;;5022167;28;20064;-87
2022/03/07 07:49:06;;;;;;;6.75;2.80;;;9.20;99.90;;;;;;4910816;29;20099;-87
2022/03/07 07:51:48;;;;;;;7.70;2.72;;;9.30;99.90;;;;;;4911586;28;20049;-87
2022/03/07 07:54:13;;;;;;;8.77;3.10;;;10.60;99.90;;;;;;4983613;28;20100;-86
2022/03/07 07:56:39;;;;;;;9.40;2.83;;;11.10;99.90;;;;;;5026168;28;20052;-86
2022/03/07 07:59:05;;;;;;;9.38;2.67;;;11.40;99.90;;;;;;5026124;28;20040;-86
2022/03/07 08:01:31;;;;;;;11.18;2.90;;;11.90;99.90;;;;;;5026625;28;20082;-86
2022/03/07 08:03:57;;;;;;;10.15;2.45;;;12.30;99.90;;;;;;5024524;28;20052;-86
2022/03/07 08:06:23;;;;;;;6.72;2.47;;;12.50;99.90;;;;;;5027613;28;20054;-86
2022/03/07 08:08:49;;;;;;;7.57;2.58;;;14.00;99.90;;;;;;5041958;28;20080;-85
2022/03/07 08:11:15;;;;;;;7.32;2.85;;;13.10;99.90;;;;;;5023033;28;20529;-86
2022/03/07 08:13:41;;;;;;;7.45;2.70;;;12.50;99.90;;;;;;5020409;28;20339;-86
2022/03/07 08:16:07;;;;;;;7.40;2.60;;;11.40;99.90;;;;;;5042215;28;20127;-87
2022/03/07 08:18:32;;;;;;;9.07;3.13;;;10.40;99.90;;;;;;5036921;28;20095;-86
2022/03/07 08:21:00;;;;;;;10.80;3.90;;;9.60;99.90;;;;;;5036698;27;20041;-85
2022/03/07 08:23:26;;;;;;;9.15;3.05;;;9.00;99.90;;;;;;5117727;27;20082;-85
2022/03/07 08:25:52;;;;;;;11.60;3.47;;;8.50;99.90;;;;;;5104931;27;20039;-85
2022/03/07 08:28:18;;;;;;;8.30;2.65;;;8.20;99.90;;;;;;5125639;27;20107;-87
2022/03/07 08:30:44;;;;;;;10.73;3.22;;;8.80;99.90;;;;;;5124478;27;20050;-85
2022/03/07 08:33:10;;;;;;;10.25;3.22;;;7.70;99.90;;;;;;5140349;27;20050;-86
2022/03/07 08:35:35;;;;;;;11.02;2.97;;;7.60;99.90;;;;;;5127943;27;20405;-85
2022/03/07 08:38:01;;;;;;;7.90;2.92;;;7.40;99.90;;;;;;5112500;27;21189;-86
2022/03/07 08:40:27;;;;;;;8.50;3.08;;;7.30;99.90;;;;;;5126797;27;20053;-85
2022/03/07 08:42:53;;;;;;;8.80;2.72;;;7.30;99.90;;;;;;5109505;27;20125;-85
2022/03/07 08:45:25;;;;;;;7.10;2.58;;;7.30;99.90;;;;;;5107676;27;20121;-85
2022/03/07 08:47:51;;;;;;;8.52;2.45;;;7.20;99.90;;;;;;5112261;27;20129;-84
2022/03/07 08:50:18;;;;;;;10.15;2.30;;;7.30;99.90;;;;;;5108903;27;20125;-85
2022/03/07 08:52:46;;;;;;;8.80;2.60;;;7.40;99.90;;;;;;5108989;27;20731;-85
2022/03/07 08:55:12;;;;;;;10.50;2.90;;;7.40;99.90;;;;;;5108707;27;20069;-84
2022/03/07 08:57:38;;;;;;;9.88;2.90;;;8.40;99.90;;;;;;5112135;27;20298;-84
2022/03/07 09:00:06;;;;;;;7.10;2.20;;;7.40;99.90;;;;;;5130202;27;20129;-84
2022/03/07 09:02:32;;;;;;;10.07;1.90;;;7.40;99.90;;;;;;5126642;27;20539;-84
2022/03/07 09:04:58;;;;;;;9.10;2.95;;;7.50;99.90;;;;;;5112101;27;20066;-84
2022/03/07 09:07:27;;;;;;;5.60;2.25;;;7.90;99.90;;;;;;5114026;27;20114;-84
2022/03/07 09:09:52;;;;;;;6.25;2.30;;;7.60;99.90;;;;;;5108182;27;20598;-83
2022/03/07 09:12:18;;;;;;;7.40;2.42;;;7.80;99.90;;;;;;5110985;27;20042;-84
2022/03/07 09:14:44;;;;;;;8.82;2.83;;;7.70;99.90;;;;;;5088651;27;20077;-83
2022/03/07 09:17:10;;;;;;;7.78;2.40;;;7.60;99.90;;;;;;5089466;27;20456;-84
2022/03/07 09:19:35;;;;;;;5.63;1.95;;;7.60;99.90;;;;;;5088708;27;20035;-84
2022/03/07 09:22:01;;;;;;;7.10;2.60;;;7.60;99.90;;;;;;5105063;27;20507;-84
2022/03/07 09:24:27;;;;;;;8.35;2.28;;;7.60;99.90;;;;;;5084314;27;20039;-83
2022/03/07 09:26:53;;;;;;;6.28;2.15;;;7.60;99.90;;;;;;5089489;27;20045;-83
2022/03/07 09:29:19;;;;;;;8.05;2.38;;;7.60;99.90;;;;;;5104584;27;20039;-83
2022/03/07 09:31:44;;;;;;;4.95;1.90;;;7.60;99.90;;;;;;5087143;27;20035;-84
2022/03/07 09:34:12;;;;;;;8.50;2.00;;;7.50;99.90;;;;;;5088700;27;20047;-83
2022/03/07 09:36:38;;;;;;;5.88;2.00;;;7.40;99.90;;;;;;5091373;27;20047;-83
2022/03/07 09:39:05;;;;;;;8.98;2.65;;;7.40;99.90;;;;;;5107283;27;20046;-83
2022/03/07 09:41:31;;;;;;;7.05;2.40;;;7.40;99.90;;;;;;5093846;27;20072;-84
2022/03/07 09:43:57;;;;;;;13.02;2.22;;;7.50;99.90;;;;;;5108267;27;20040;-84
2022/03/07 09:46:23;;;;;;;8.45;2.17;;;7.50;99.90;;;;;;5105684;27;20063;-83
2022/03/07 09:48:48;;;;;;;7.15;2.13;;;7.40;99.90;;;;;;5105547;27;20574;-84
2022/03/07 09:51:14;;;;;;;8.27;2.00;;;7.30;99.90;;;;;;5107133;27;20039;-84
2022/03/07 09:53:40;;;;;;;7.60;2.30;;;7.40;99.90;;;;;;5088564;27;20258;-84
2022/03/07 09:56:06;;;;;;;7.10;1.90;;;7.50;99.90;;;;;;5090686;27;20047;-84
2022/03/07 09:58:31;;;;;;;5.10;1.85;;;7.60;99.90;;;;;;5090195;27;20092;-84
2022/03/07 10:01:18;;;;;;;5.15;1.95;;;7.60;99.90;;;;;;5089341;27;20046;-84
2022/03/07 10:03:45;;;;;;;7.43;1.70;;;7.60;99.90;;;;;;5089877;27;20565;-84
2022/03/07 10:06:16;;;;;;;3.95;1.48;;;7.60;99.90;;;;;;5086074;27;20062;-84
2022/03/07 10:08:56;;;;;;;8.75;1.88;;;7.60;99.90;;;;;;5072403;27;20089;-85
2022/03/07 10:11:23;;;;;;;9.40;1.88;;;7.60;99.90;;;;;;5106402;27;20035;-88
2022/03/07 10:13:54;;;;;;;7.00;1.55;;;7.60;99.90;;;;;;5090140;27;20088;-84
2022/03/07 10:16:23;;;;;;;6.45;1.40;;;7.40;99.90;;;;;;5089048;27;20043;-83
2022/03/07 10:18:54;;;;;;;8.02;1.88;;;7.70;99.90;;;;;;5085487;27;20047;-85
2022/03/07 10:21:27;;;;;;;8.07;1.83;;;7.10;99.90;;;;;;5105305;27;20054;-84
2022/03/07 10:23:55;;;;;;;5.47;1.48;;;7.10;99.90;;;;;;5086604;27;20038;-84
2022/03/07 10:26:21;;;;;;;9.80;1.77;;;7.00;99.90;;;;;;5107857;27;20035;-84
2022/03/07 10:28:55;;;;;;;5.65;1.48;;;7.60;99.90;;;;;;5107853;27;20043;-84
2022/03/07 10:31:22;;;;;;;5.60;1.60;;;7.10;99.90;;;;;;5095881;27;20035;-84
2022/03/07 10:34:04;;;;;;;5.65;1.60;;;6.80;99.90;;;;;;5090696;27;20047;-84
2022/03/07 10:36:42;;;;;;;7.47;1.83;;;7.00;99.90;;;;;;5079567;27;20031;-84
2022/03/07 10:39:10;;;;;;;5.38;1.75;;;7.00;99.90;;;;;;5088123;27;20147;-84
2022/03/07 10:41:45;;;;;;;6.57;1.98;;;7.10;99.90;;;;;;5090017;27;20039;-83
2022/03/07 10:44:27;;;;;;;8.70;2.40;;;7.20;99.90;;;;;;5084236;27;20617;-84
2022/03/07 10:46:52;;;;;;;5.35;2.20;;;7.20;99.90;;;;;;5094527;27;20051;-85
2022/03/07 10:49:18;;;;;;;13.10;2.15;;;7.20;99.90;;;;;;5079064;27;20712;-84
2022/03/07 10:51:54;;;;;;;6.25;1.67;;;7.20;99.90;;;;;;5081758;27;20039;-85
2022/03/07 10:54:22;;;;;;;8.05;1.88;;;7.30;99.90;;;;;;5092934;27;20069;-84
2022/03/07 10:56:52;;;;;;;7.13;2.03;;;7.20;99.90;;;;;;5061172;27;20464;-85
2022/03/07 10:59:29;;;;;;;6.80;1.75;;;7.40;99.90;;;;;;5076532;27;20086;-85
2022/03/07 11:02:04;;;;;;;6.35;1.85;;;7.30;99.90;;;;;;5109859;27;20059;-84
2022/03/07 11:04:30;;;;;;;5.72;1.58;;;7.10;99.90;;;;;;5101900;27;20039;-84
2022/03/07 11:06:56;;;;;;;4.70;1.63;;;6.90;99.90;;;;;;5103976;27;20069;-85
2022/03/07 11:09:22;;;;;;;7.68;1.80;;;6.90;99.90;;;;;;5097724;27;20039;-84
2022/03/07 11:11:52;;;;;;;6.32;1.70;;;7.70;99.90;;;;;;5076388;27;20050;-83
2022/03/07 11:14:19;;;;;;;7.72;1.75;;;6.90;99.90;;;;;;5078784;27;20077;-84
2022/03/07 11:16:49;;;;;;;7.57;1.77;;;6.90;99.90;;;;;;5078267;27;20127;-85
2022/03/07 11:19:18;;;;;;;6.90;1.65;;;7.40;99.90;;;;;;5080486;27;20054;-85
2022/03/07 11:21:45;;;;;;;5.75;1.67;;;7.70;99.90;;;;;;5065911;27;20051;-84
2022/03/07 11:24:12;;;;;;;8.50;1.63;;;6.70;99.90;;;;;;5095610;27;20086;-85
2022/03/07 11:26:41;;;;;;;6.78;1.80;;;7.80;99.90;;;;;;5082027;27;20055;-83
2022/03/07 11:29:08;;;;;;;8.82;2.20;;;7.20;99.90;;;;;;5097386;27;20040;-84
2022/03/07 11:31:35;;;;;;;4.53;1.70;;;7.40;99.90;;;;;;5081725;27;20426;-84
2022/03/07 11:34:07;;;;;;;5.32;1.60;;;7.70;99.90;;;;;;5086862;27;20058;-85
2022/03/07 11:36:44;;;;;;;6.80;1.45;;;7.90;99.90;;;;;;5084849;27;20151;-86
2022/03/07 11:39:10;;;;;;;6.90;1.33;;;8.10;99.90;;;;;;5081433;27;20133;-87
2022/03/07 11:41:38;;;;;;;7.00;1.40;;;8.40;99.90;;;;;;5105474;27;20043;-86
2022/03/07 11:44:09;;;;;;;6.55;1.75;;;8.50;99.90;;;;;;5101116;27;20059;-85
2022/03/07 11:46:41;;;;;;;10.30;1.70;;;8.60;99.90;;;;;;5095797;27;20119;-84
2022/03/07 11:49:10;;;;;;;7.35;1.90;;;8.60;99.90;;;;;;5101217;27;20047;-88
2022/03/07 11:51:40;;;;;;;6.90;1.58;;;8.50;99.90;;;;;;5089609;27;20114;-85
2022/03/07 11:54:17;;;;;;;6.03;1.63;;;8.50;99.90;;;;;;5078793;27;20480;-84
2022/03/07 11:56:43;;;;;;;6.38;1.73;;;8.50;99.90;;;;;;5098735;27;20047;-84
2022/03/07 11:59:10;;;;;;;6.80;1.50;;;8.40;99.90;;;;;;5104547;27;20041;-85
2022/03/07 12:01:36;;;;;;;6.50;1.75;;;8.30;99.90;;;;;;5072597;28;20607;-85
2022/03/07 12:04:16;;;;;;;4.53;1.52;;;8.30;99.90;;;;;;5097665;27;20039;-85
2022/03/07 12:06:45;;;;;;;8.98;1.60;;;8.50;99.90;;;;;;5103526;27;20035;-85
2022/03/07 12:09:21;;;;;;;7.60;2.50;;;8.30;99.90;;;;;;5075738;28;20096;-85
2022/03/07 12:12:15;;;;;;;7.97;3.05;;;8.40;99.90;;;;;;5080427;27;20154;-84
2022/03/07 12:14:43;;;;;;;6.10;1.30;;;8.40;99.90;;;;;;5098351;27;20086;-85
2022/03/07 12:17:23;;;;;;;7.03;1.85;;;8.40;99.90;;;;;;5121750;27;20060;-84
2022/03/07 12:19:54;;;;;;;5.07;1.30;;;8.30;99.90;;;;;;5106561;27;20042;-85
2022/03/07 12:22:24;;;;;;;6.28;1.65;;;8.20;99.90;;;;;;5125343;27;20518;-85
2022/03/07 12:24:53;;;;;;;6.28;1.88;;;8.10;99.90;;;;;;5094755;27;20035;-84
2022/03/07 12:27:18;;;;;;;4.93;1.40;;;8.20;99.90;;;;;;5102415;27;20077;-84
2022/03/07 12:29:44;;;;;;;4.22;1.40;;;8.30;99.90;;;;;;5102059;27;20046;-85
2022/03/07 12:32:11;;;;;;;7.47;2.00;;;8.30;99.90;;;;;;5101326;27;20043;-84
2022/03/07 12:34:39;;;;;;;6.93;1.70;;;8.40;99.90;;;;;;5120772;27;20150;-84
2022/03/07 12:37:11;;;;;;;4.22;1.48;;;8.40;99.90;;;;;;5105932;27;20727;-82
2022/03/07 12:39:54;;;;;;;4.20;1.30;;;8.50;99.90;;;;;;5113092;27;20043;-83
2022/03/07 12:42:23;;;;;;;4.95;1.77;;;8.70;99.90;;;;;;5120142;27;20636;-85
2022/03/07 12:44:52;;;;;;;3.15;1.05;;;8.80;99.90;;;;;;5115419;27;20042;-83
2022/03/07 12:47:27;;;;;;;4.32;1.10;;;8.80;99.90;;;;;;5103795;27;20107;-82
2022/03/07 12:49:52;;;;;;;4.88;1.27;;;8.90;99.90;;;;;;5102620;27;20146;-83
2022/03/07 12:52:24;;;;;;;3.33;0.90;;;8.90;99.70;;;;;;5101674;27;20058;-83
2022/03/07 12:54:50;;;;;;;3.30;1.00;;;8.90;99.90;;;;;;5135146;27;20428;-83
2022/03/07 12:57:16;;;;;;;5.00;1.02;;;8.90;99.90;;;;;;5099434;27;20035;-83
2022/03/07 12:59:42;;;;;;;3.83;1.15;;;9.30;99.90;;;;;;5097300;27;20072;-85
2022/03/07 13:02:08;;;;;;;8.00;1.30;;;9.40;99.90;;;;;;5113469;27;20047;-87